createdAt,value
2022-09-09T00:01:33.889Z,100.00
2022-09-09T00:04:25.086Z,100.00
2022-09-09T00:07:07.393Z,100.00
2022-09-09T00:09:54.855Z,100.00
2022-09-09T00:12:35.791Z,100.00
2022-09-09T00:15:14.098Z,100.00
2022-09-09T00:18:10.925Z,100.00
2022-09-09T00:20:41.914Z,100.00
2022-09-09T00:23:29.585Z,100.00
2022-09-09T00:26:07.967Z,100.00
2022-09-09T00:28:44.924Z,100.00
2022-09-09T00:31:17.704Z,100.00
2022-09-09T00:33:47.506Z,100.00
2022-09-09T00:36:19.873Z,100.00
2022-09-09T00:38:56.442Z,100.00
2022-09-09T00:41:59.018Z,100.00
2022-09-09T00:44:36.458Z,100.00
2022-09-09T00:47:05.082Z,100.00
2022-09-09T00:49:39.471Z,100.00
2022-09-09T00:52:13.494Z,100.00
2022-09-09T00:54:53.814Z,100.00
2022-09-09T00:57:35.810Z,100.00
2022-09-09T01:00:06.801Z,100.00
2022-09-09T01:03:15.751Z,100.00
2022-09-09T01:06:39.959Z,100.00
2022-09-09T01:09:31.154Z,100.00
2022-09-09T01:12:04.686Z,100.00
2022-09-09T01:14:33.841Z,100.00
2022-09-09T01:17:26.999Z,100.00
2022-09-09T01:20:24.068Z,100.00
2022-09-09T01:23:00.974Z,100.00
2022-09-09T01:26:04.698Z,100.00
2022-09-09T01:28:36.779Z,100.00
2022-09-09T01:31:15.758Z,100.00
2022-09-09T01:33:48.481Z,100.00
2022-09-09T01:36:22.424Z,100.00
2022-09-09T01:38:53.629Z,100.00
2022-09-09T01:41:22.332Z,100.00
2022-09-09T01:44:10.298Z,100.00
2022-09-09T01:46:40.313Z,100.00
2022-09-09T01:49:15.077Z,100.00
2022-09-09T01:51:45.717Z,100.00
2022-09-09T01:54:15.782Z,100.00
2022-09-09T01:57:02.668Z,100.00
2022-09-09T01:59:49.778Z,100.00
2022-09-09T02:02:33.527Z,100.00
2022-09-09T02:05:38.667Z,100.00
2022-09-09T02:08:16.590Z,100.00
2022-09-09T02:11:07.095Z,100.00
2022-09-09T02:13:47.394Z,100.00
2022-09-09T02:16:25.711Z,100.00
2022-09-09T02:18:57.614Z,100.00
2022-09-09T02:21:36.330Z,100.00
2022-09-09T02:24:10.953Z,100.00
2022-09-09T02:26:46.287Z,100.00
2022-09-09T02:29:25.629Z,100.00
2022-09-09T02:31:56.690Z,100.00
2022-09-09T02:34:28.926Z,100.00
2022-09-09T02:37:01.007Z,100.00
2022-09-09T02:39:29.288Z,100.00
2022-09-09T02:41:57.598Z,100.00
2022-09-09T02:44:31.051Z,100.00
2022-09-09T02:47:29.750Z,100.00
2022-09-09T02:50:36.778Z,100.00
2022-09-09T02:53:29.390Z,100.00
2022-09-09T02:56:08.042Z,100.00
2022-09-09T02:58:37.932Z,100.00
2022-09-09T03:01:07.739Z,100.00
2022-09-09T03:03:36.287Z,100.00
2022-09-09T03:06:08.270Z,100.00
2022-09-09T03:08:36.948Z,100.00
2022-09-09T03:11:05.853Z,100.00
2022-09-09T03:13:36.575Z,100.00
2022-09-09T03:16:05.676Z,100.00
2022-09-09T03:18:36.708Z,100.00
2022-09-09T03:21:05.301Z,100.00
2022-09-09T03:23:33.627Z,100.00
2022-09-09T03:26:03.494Z,100.00
2022-09-09T03:28:40.145Z,100.00
2022-09-09T03:31:11.448Z,100.00
2022-09-09T03:33:44.806Z,100.00
2022-09-09T03:36:16.070Z,100.00
2022-09-09T03:38:44.506Z,100.00
2022-09-09T03:41:13.931Z,100.00
2022-09-09T03:43:43.005Z,100.00
2022-09-09T03:46:11.488Z,100.00
2022-09-09T03:48:39.810Z,100.00
2022-09-09T03:51:08.125Z,100.00
2022-09-09T03:53:36.914Z,100.00
2022-09-09T03:56:07.723Z,100.00
2022-09-09T03:58:37.067Z,100.00
2022-09-09T04:01:14.699Z,100.00
2022-09-09T04:03:45.815Z,100.00
2022-09-09T04:06:15.809Z,100.00
2022-09-09T04:08:46.218Z,100.00
2022-09-09T04:11:17.095Z,100.00
2022-09-09T04:13:45.680Z,100.00
2022-09-09T04:16:15.870Z,100.00
2022-09-09T04:18:45.216Z,100.00
2022-09-09T04:21:14.434Z,100.00
2022-09-09T04:23:43.133Z,100.00
2022-09-09T04:26:11.480Z,100.00
2022-09-09T04:28:39.975Z,100.00
2022-09-09T04:31:19.836Z,100.00
2022-09-09T04:33:48.667Z,100.00
2022-09-09T04:36:20.442Z,100.00
2022-09-09T04:38:50.333Z,100.00
2022-09-09T04:41:18.949Z,100.00
2022-09-09T04:43:49.570Z,100.00
2022-09-09T04:46:18.557Z,100.00
2022-09-09T04:48:47.082Z,100.00
2022-09-09T04:51:15.899Z,100.00
2022-09-09T04:53:46.350Z,100.00
2022-09-09T04:56:16.816Z,100.00
2022-09-09T04:58:52.181Z,100.00
2022-09-09T05:01:25.437Z,100.00
2022-09-09T05:03:55.708Z,100.00
2022-09-09T05:06:25.129Z,100.00
2022-09-09T05:08:57.405Z,100.00
2022-09-09T05:11:30.257Z,100.00
2022-09-09T05:14:21.598Z,100.00
2022-09-09T05:16:51.119Z,100.00
2022-09-09T05:19:21.018Z,100.00
2022-09-09T05:21:51.250Z,100.00
2022-09-09T05:24:24.387Z,100.00
2022-09-09T05:26:54.875Z,100.00
2022-09-09T05:29:23.108Z,100.00
2022-09-09T05:31:51.362Z,100.00
2022-09-09T05:34:21.895Z,100.00
2022-09-09T05:36:51.037Z,100.00
2022-09-09T05:39:19.586Z,100.00
2022-09-09T05:41:47.895Z,100.00
2022-09-09T05:44:16.289Z,100.00
2022-09-09T05:46:45.878Z,100.00
2022-09-09T05:49:16.817Z,100.00
2022-09-09T05:51:45.473Z,100.00
2022-09-09T05:54:16.663Z,100.00
2022-09-09T05:56:51.792Z,100.00
2022-09-09T05:59:20.958Z,100.00
2022-09-09T06:01:49.583Z,100.00
2022-09-09T06:04:28.350Z,100.00
2022-09-09T06:06:56.585Z,100.00
2022-09-09T06:09:25.098Z,100.00
2022-09-09T06:11:53.362Z,100.00
2022-09-09T06:14:23.026Z,100.00
2022-09-09T06:16:53.017Z,100.00
2022-09-09T06:19:27.582Z,100.00
2022-09-09T06:21:58.126Z,100.00
2022-09-09T06:24:26.546Z,100.00
2022-09-09T06:26:55.157Z,100.00
2022-09-09T06:29:26.447Z,100.00
2022-09-09T06:31:54.752Z,100.00
2022-09-09T06:34:24.823Z,100.00
2022-09-09T06:36:58.853Z,100.00
2022-09-09T06:39:28.207Z,100.00
2022-09-09T06:41:58.970Z,100.00
2022-09-09T06:44:56.122Z,100.00
2022-09-09T06:47:31.260Z,100.00
2022-09-09T06:50:00.010Z,100.00
2022-09-09T06:52:29.629Z,100.00
2022-09-09T06:54:59.937Z,100.00
2022-09-09T06:57:36.931Z,100.00
2022-09-09T07:00:09.301Z,100.00
2022-09-09T07:02:40.778Z,100.00
2022-09-09T07:05:10.096Z,100.00
2022-09-09T07:07:38.379Z,99.89
2022-09-09T07:10:07.033Z,100.00
2022-09-09T07:12:35.788Z,100.00
2022-09-09T07:15:05.295Z,99.84
2022-09-09T07:17:33.597Z,99.76
2022-09-09T07:20:04.943Z,99.76
2022-09-09T07:22:34.686Z,99.94
2022-09-09T07:25:04.682Z,99.14
2022-09-09T07:27:32.958Z,98.93
2022-09-09T07:30:01.186Z,98.21
2022-09-09T07:32:31.538Z,97.72
2022-09-09T07:34:59.786Z,96.34
2022-09-09T07:37:28.638Z,95.28
2022-09-09T07:39:57.134Z,94.98
2022-09-09T07:42:26.270Z,95.30
2022-09-09T07:44:56.225Z,93.13
2022-09-09T07:47:26.371Z,92.91
2022-09-09T07:49:54.621Z,92.06
2022-09-09T07:52:27.772Z,92.40
2022-09-09T07:54:58.417Z,93.16
2022-09-09T07:57:27.092Z,92.16
2022-09-09T07:59:57.115Z,89.55
2022-09-09T08:02:26.709Z,89.30
2022-09-09T08:04:54.931Z,88.05
2022-09-09T08:07:24.597Z,87.48
2022-09-09T08:09:56.786Z,86.21
2022-09-09T08:12:29.085Z,85.57
2022-09-09T08:14:57.896Z,82.90
2022-09-09T08:17:28.968Z,83.35
2022-09-09T08:19:58.433Z,84.52
2022-09-09T08:22:28.985Z,85.50
2022-09-09T08:24:57.450Z,84.81
2022-09-09T08:27:26.787Z,85.81
2022-09-09T08:29:55.377Z,85.54
2022-09-09T08:32:24.994Z,85.99
2022-09-09T08:34:54.618Z,85.89
2022-09-09T08:37:25.019Z,84.39
2022-09-09T08:39:55.346Z,82.38
2022-09-09T08:42:42.174Z,82.01
2022-09-09T08:45:47.723Z,80.30
2022-09-09T08:48:22.083Z,81.47
2022-09-09T08:50:53.266Z,82.56
2022-09-09T08:53:32.773Z,83.90
2022-09-09T08:56:09.698Z,80.93
2022-09-09T08:58:58.428Z,79.08
2022-09-09T09:01:46.153Z,80.53
2022-09-09T09:04:28.690Z,80.09
2022-09-09T09:07:18.765Z,80.99
2022-09-09T09:10:41.719Z,78.91
2022-09-09T09:13:18.261Z,79.88
2022-09-09T09:15:54.376Z,79.01
2022-09-09T09:18:22.891Z,77.94
2022-09-09T09:20:59.798Z,77.01
2022-09-09T09:23:42.537Z,75.50
2022-09-09T09:26:14.607Z,72.40
2022-09-09T09:28:44.356Z,72.81
2022-09-09T09:31:16.385Z,71.32
2022-09-09T09:33:51.588Z,72.52
2022-09-09T09:36:26.154Z,72.25
2022-09-09T09:41:50.000Z,70.97
2022-09-09T09:44:33.406Z,71.04
2022-09-09T09:47:18.215Z,68.78
2022-09-09T09:50:00.944Z,67.17
2022-09-09T09:52:33.389Z,67.14
2022-09-09T09:55:08.339Z,66.98
2022-09-09T09:57:37.754Z,65.67
2022-09-09T10:00:17.903Z,63.27
2022-09-09T10:02:53.032Z,62.23
2022-09-09T10:05:36.143Z,61.51
2022-09-09T10:08:10.466Z,59.71
2022-09-09T10:10:53.107Z,58.44
2022-09-09T10:13:45.999Z,58.74
2022-09-09T10:16:23.141Z,58.06
2022-09-09T10:19:18.001Z,58.21
2022-09-09T10:22:17.625Z,57.65
2022-09-09T10:25:00.748Z,56.33
2022-09-09T10:27:38.026Z,54.81
2022-09-09T10:30:18.517Z,56.54
2022-09-09T10:32:53.435Z,56.02
2022-09-09T10:35:27.595Z,57.49
2022-09-09T10:38:04.311Z,57.50
2022-09-09T10:40:49.886Z,55.41
2022-09-09T10:44:00.308Z,53.66
2022-09-09T10:46:32.020Z,55.75
2022-09-09T10:49:38.258Z,53.60
2022-09-09T10:52:29.813Z,49.73
2022-09-09T10:55:29.914Z,50.39
2022-09-09T10:58:01.672Z,51.77
2022-09-09T11:00:41.764Z,53.95
2022-09-09T11:03:21.175Z,55.80
2022-09-09T11:06:20.734Z,55.25
2022-09-09T11:08:53.779Z,56.62
2022-09-09T11:11:35.154Z,54.30
2022-09-09T11:14:13.626Z,55.63
2022-09-09T11:17:05.156Z,55.57
2022-09-09T11:19:41.563Z,54.88
2022-09-09T11:22:35.863Z,55.77
2022-09-09T11:25:35.363Z,57.04
2022-09-09T11:29:00.451Z,55.67
2022-09-09T11:31:53.935Z,53.12
2022-09-09T11:34:48.616Z,52.22
2022-09-09T11:37:17.178Z,53.34
2022-09-09T11:39:53.128Z,54.06
2022-09-09T11:42:25.566Z,55.35
2022-09-09T11:44:56.122Z,56.00
2022-09-09T11:47:32.925Z,57.18
2022-09-09T11:50:33.247Z,57.90
2022-09-09T11:53:13.659Z,58.38
2022-09-09T11:55:41.937Z,56.89
2022-09-09T11:58:12.829Z,56.51
2022-09-09T12:00:45.601Z,56.07
2022-09-09T12:03:41.343Z,54.75
2022-09-09T12:06:12.604Z,52.42
2022-09-09T12:08:46.567Z,50.51
2022-09-09T12:11:28.637Z,50.24
2022-09-09T12:14:00.733Z,48.85
2022-09-09T12:16:35.603Z,49.79
2022-09-09T12:19:22.071Z,47.86
2022-09-09T12:22:05.451Z,49.90
2022-09-09T12:24:48.347Z,47.81
2022-09-09T12:27:27.091Z,49.59
2022-09-09T12:30:16.649Z,50.16
2022-09-09T12:32:47.583Z,50.70
2022-09-09T12:35:28.072Z,49.67
2022-09-09T12:38:04.494Z,48.16
2022-09-09T12:40:36.467Z,50.20
2022-09-09T12:43:22.637Z,49.48
2022-09-09T12:45:58.793Z,47.13
2022-09-09T12:48:34.084Z,46.79
2022-09-09T12:51:03.026Z,46.59
2022-09-09T12:53:33.090Z,47.33
2022-09-09T12:56:11.286Z,46.45
2022-09-09T12:58:41.486Z,44.61
2022-09-09T13:01:23.200Z,45.88
2022-09-09T13:03:52.163Z,45.60
2022-09-09T13:06:29.099Z,45.55
2022-09-09T13:09:00.293Z,44.60
2022-09-09T13:11:43.347Z,45.62
2022-09-09T13:14:31.289Z,45.32
2022-09-09T13:17:01.697Z,46.20
2022-09-09T13:19:46.566Z,45.53
2022-09-09T13:22:14.768Z,47.41
2022-09-09T13:24:43.819Z,47.33
2022-09-09T13:27:29.292Z,47.11
2022-09-09T13:29:58.046Z,46.63
2022-09-09T13:32:28.097Z,47.74
2022-09-09T13:35:02.663Z,47.79
2022-09-09T13:37:42.370Z,48.79
2022-09-09T13:40:20.590Z,48.19
2022-09-09T13:42:53.691Z,48.42
2022-09-09T13:45:25.578Z,48.58
2022-09-09T13:47:56.674Z,48.44
2022-09-09T13:50:30.727Z,48.62
2022-09-09T13:52:59.836Z,48.92
2022-09-09T13:55:29.509Z,47.93
2022-09-09T13:58:03.828Z,46.94
2022-09-09T14:00:35.119Z,48.02
2022-09-09T14:03:03.598Z,48.51
2022-09-09T14:05:35.004Z,49.85
2022-09-09T14:08:07.698Z,50.12
2022-09-09T14:10:39.081Z,50.82
2022-09-09T14:13:07.325Z,50.21
2022-09-09T14:15:35.602Z,51.46
2022-09-09T14:18:04.015Z,49.69
2022-09-09T14:20:33.021Z,49.18
2022-09-09T14:23:03.515Z,50.63
2022-09-09T14:25:32.744Z,51.44
2022-09-09T14:28:01.539Z,50.86
2022-09-09T14:30:29.805Z,52.04
2022-09-09T14:32:58.296Z,52.23
2022-09-09T14:35:26.547Z,52.28
2022-09-09T14:37:54.757Z,52.33
2022-09-09T14:40:23.110Z,53.14
2022-09-09T14:42:51.335Z,52.94
2022-09-09T14:45:19.605Z,53.11
2022-09-09T14:47:48.500Z,53.86
2022-09-09T14:50:16.718Z,53.04
2022-09-09T14:52:45.411Z,54.34
2022-09-09T14:55:14.199Z,54.82
2022-09-09T14:57:43.531Z,54.58
2022-09-09T15:00:13.537Z,56.44
2022-09-09T15:02:41.884Z,56.71
2022-09-09T15:05:10.521Z,56.85
2022-09-09T15:07:39.353Z,56.86
2022-09-09T15:10:08.014Z,57.95
2022-09-09T15:12:36.337Z,58.56
2022-09-09T15:17:48.529Z,59.17
2022-09-09T15:20:17.798Z,58.85
2022-09-09T15:22:46.023Z,59.59
2022-09-09T15:25:14.453Z,57.42
2022-09-09T15:27:42.854Z,56.40
2022-09-09T15:30:11.879Z,55.57
2022-09-09T15:32:40.769Z,55.44
2022-09-09T15:35:09.081Z,54.73
2022-09-09T15:37:37.331Z,53.87
2022-09-09T15:40:06.121Z,54.89
2022-09-09T15:42:34.354Z,55.91
2022-09-09T15:45:02.521Z,56.95
2022-09-09T15:47:30.846Z,56.65
2022-09-09T15:49:58.994Z,56.07
2022-09-09T15:52:27.160Z,56.65
2022-09-09T15:54:55.923Z,58.07
2022-09-09T15:57:24.168Z,58.93
2022-09-09T15:59:52.358Z,59.88
2022-09-09T16:02:20.696Z,60.80
2022-09-09T16:04:48.963Z,61.29
2022-09-09T16:07:17.176Z,62.37
2022-09-09T16:09:45.513Z,63.47
2022-09-09T16:12:14.301Z,64.33
2022-09-09T16:14:42.985Z,64.67
2022-09-09T16:17:12.281Z,65.36
2022-09-09T16:19:40.757Z,65.35
2022-09-09T16:22:09.564Z,65.37
2022-09-09T16:24:37.877Z,66.26
2022-09-09T16:27:06.320Z,67.13
2022-09-09T16:29:34.647Z,67.58
2022-09-09T16:32:04.398Z,68.12
2022-09-09T16:34:34.652Z,67.84
2022-09-09T16:37:03.263Z,68.04
2022-09-09T16:39:31.789Z,68.90
2022-09-09T16:42:00.994Z,69.21
2022-09-09T16:44:29.346Z,69.58
2022-09-09T16:47:00.731Z,70.01
2022-09-09T16:49:30.029Z,70.39
2022-09-09T16:52:01.098Z,70.77
2022-09-09T16:54:30.184Z,71.28
2022-09-09T16:57:00.580Z,71.67
2022-09-09T16:59:29.530Z,71.93
2022-09-09T17:01:57.909Z,72.33
2022-09-09T17:04:31.991Z,72.92
2022-09-09T17:07:01.777Z,73.46
2022-09-09T17:09:30.455Z,73.97
2022-09-09T17:12:01.073Z,74.33
2022-09-09T17:14:32.270Z,74.76
2022-09-09T17:17:24.703Z,75.10
2022-09-09T17:19:52.287Z,75.70
2022-09-09T17:22:24.716Z,76.22
2022-09-09T17:24:53.273Z,76.55
2022-09-09T17:27:21.662Z,76.78
2022-09-09T17:29:49.999Z,77.35
2022-09-09T17:32:19.542Z,77.61
2022-09-09T17:34:47.790Z,77.79
2022-09-09T17:37:15.995Z,78.35
2022-09-09T17:39:44.394Z,78.79
2022-09-09T17:42:12.638Z,79.24
2022-09-09T17:44:42.870Z,79.43
2022-09-09T17:47:11.202Z,79.94
2022-09-09T17:49:39.567Z,80.43
2022-09-09T17:52:07.782Z,80.77
2022-09-09T17:54:36.702Z,81.34
2022-09-09T17:57:05.186Z,81.72
2022-09-09T17:59:33.403Z,82.14
2022-09-09T18:02:02.060Z,82.77
2022-09-09T18:04:30.478Z,83.33
2022-09-09T18:06:59.412Z,84.00
2022-09-09T18:09:28.206Z,84.27
2022-09-09T18:11:58.860Z,84.92
2022-09-09T18:14:31.323Z,85.12
2022-09-09T18:17:01.360Z,85.71
2022-09-09T18:19:33.029Z,86.14
2022-09-09T18:22:05.245Z,86.56
2022-09-09T18:24:34.179Z,86.82
2022-09-09T18:27:04.173Z,87.07
2022-09-09T18:29:33.367Z,87.42
2022-09-09T18:32:01.834Z,87.72
2022-09-09T18:34:31.025Z,87.98
2022-09-09T18:36:59.509Z,88.04
2022-09-09T18:39:29.824Z,88.07
2022-09-09T18:42:01.638Z,88.34
2022-09-09T18:44:33.949Z,88.53
2022-09-09T18:47:03.779Z,88.58
2022-09-09T18:49:33.815Z,88.64
2022-09-09T18:52:04.718Z,88.94
2022-09-09T18:54:34.454Z,89.10
2022-09-09T18:57:02.815Z,89.38
2022-09-09T18:59:31.524Z,89.67
2022-09-09T19:02:01.070Z,90.01
2022-09-09T19:04:33.075Z,90.27
2022-09-09T19:07:01.696Z,90.45
2022-09-09T19:09:33.842Z,90.54
2022-09-09T19:12:02.950Z,91.01
2022-09-09T19:14:31.579Z,91.25
2022-09-09T19:17:01.353Z,91.21
2022-09-09T19:19:32.527Z,91.29
2022-09-09T19:22:03.741Z,91.25
2022-09-09T19:24:33.727Z,91.33
2022-09-09T19:27:04.566Z,91.62
2022-09-09T19:29:39.601Z,91.85
2022-09-09T19:35:06.084Z,92.11
2022-09-09T19:37:34.929Z,92.46
2022-09-09T19:40:06.959Z,92.48
2022-09-09T19:42:35.283Z,92.76
2022-09-09T19:45:05.171Z,92.64
2022-09-09T19:47:34.153Z,92.89
2022-09-09T19:50:05.867Z,93.45
2022-09-09T19:52:35.305Z,93.78
2022-09-09T19:55:03.968Z,93.69
2022-09-09T19:57:32.490Z,94.15
2022-09-09T20:00:01.079Z,94.26
2022-09-09T20:02:29.656Z,94.41
2022-09-09T20:04:58.666Z,94.51
2022-09-09T20:07:27.113Z,94.49
2022-09-09T20:09:55.475Z,94.80
2022-09-09T20:12:23.850Z,94.93
2022-09-09T20:14:52.166Z,94.87
2022-09-09T20:17:21.523Z,95.12
2022-09-09T20:19:49.753Z,95.05
2022-09-09T20:22:17.991Z,95.14
2022-09-09T20:24:46.464Z,95.63
2022-09-09T20:27:14.715Z,96.00
2022-09-09T20:29:43.092Z,96.14
2022-09-09T20:32:12.359Z,96.34
2022-09-09T20:34:43.189Z,96.52
2022-09-09T20:37:18.027Z,96.52
2022-09-09T20:39:46.662Z,96.77
2022-09-09T20:42:15.482Z,96.66
2022-09-09T20:44:43.814Z,96.78
2022-09-09T20:47:13.183Z,96.87
2022-09-09T20:49:41.485Z,96.97
2022-09-09T20:52:11.753Z,97.05
2022-09-09T20:54:41.023Z,97.43
2022-09-09T20:57:09.641Z,97.27
2022-09-09T20:59:38.114Z,97.14
2022-09-09T21:02:06.865Z,97.04
2022-09-09T21:04:38.587Z,97.21
2022-09-09T21:07:07.679Z,97.31
2022-09-09T21:09:36.377Z,97.21
2022-09-09T21:12:04.802Z,97.30
2022-09-09T21:14:33.197Z,97.46
2022-09-09T21:17:03.359Z,97.62
2022-09-09T21:19:31.634Z,97.76
2022-09-09T21:22:00.397Z,97.75
2022-09-09T21:24:29.288Z,97.57
2022-09-09T21:26:57.530Z,97.91
2022-09-09T21:29:25.821Z,98.03
2022-09-09T21:31:55.858Z,98.40
2022-09-09T21:34:24.044Z,98.86
2022-09-09T21:36:52.274Z,99.42
2022-09-09T21:39:20.474Z,99.49
2022-09-09T21:41:48.738Z,99.52
2022-09-09T21:44:17.042Z,99.43
2022-09-09T21:46:45.338Z,99.54
2022-09-09T21:49:14.202Z,99.64
2022-09-09T21:51:42.542Z,99.67
2022-09-09T21:54:10.706Z,99.96
2022-09-09T21:56:39.663Z,100.00
2022-09-09T21:59:08.233Z,100.00
2022-09-09T22:01:36.680Z,100.00
2022-09-09T22:04:05.139Z,100.00
2022-09-09T22:06:33.979Z,100.00
2022-09-09T22:09:03.992Z,100.00
2022-09-09T22:11:32.201Z,100.00
2022-09-09T22:14:01.701Z,100.00
2022-09-09T22:16:29.975Z,100.00
2022-09-09T22:19:00.374Z,100.00
2022-09-09T22:21:30.839Z,100.00
2022-09-09T22:24:01.959Z,100.00
2022-09-09T22:26:33.335Z,100.00
2022-09-09T22:29:02.121Z,100.00
2022-09-09T22:31:31.570Z,100.00
2022-09-09T22:33:59.831Z,100.00
2022-09-09T22:36:28.141Z,100.00
2022-09-09T22:38:56.851Z,100.00
2022-09-09T22:41:25.368Z,100.00
2022-09-09T22:43:53.729Z,100.00
2022-09-09T22:46:23.881Z,100.00
2022-09-09T22:48:52.170Z,100.00
2022-09-09T22:51:20.553Z,100.00
2022-09-09T22:53:48.952Z,100.00
2022-09-09T22:56:19.846Z,100.00
2022-09-09T22:58:55.414Z,100.00
2022-09-09T23:01:25.486Z,100.00
2022-09-09T23:03:59.521Z,100.00
2022-09-09T23:06:29.029Z,100.00
2022-09-09T23:09:02.733Z,100.00
2022-09-09T23:11:34.794Z,100.00
2022-09-09T23:14:06.677Z,100.00
2022-09-09T23:16:39.807Z,100.00
2022-09-09T23:19:10.950Z,100.00
2022-09-09T23:21:40.622Z,100.00
2022-09-09T23:24:12.037Z,100.00
2022-09-09T23:26:41.881Z,100.00
2022-09-09T23:29:14.459Z,100.00
2022-09-09T23:31:45.077Z,100.00
2022-09-09T23:34:14.358Z,100.00
2022-09-09T23:36:42.818Z,100.00
2022-09-09T23:39:12.176Z,100.00
2022-09-09T23:41:41.190Z,100.00
2022-09-09T23:44:12.886Z,100.00
2022-09-09T23:46:41.788Z,100.00
2022-09-09T23:49:10.142Z,100.00
2022-09-09T23:51:38.466Z,100.00
2022-09-09T23:54:07.395Z,100.00
2022-09-09T23:56:39.338Z,100.00
2022-09-09T23:59:08.539Z,100.00
